sensor_id;sensor_type;location;lat;lon;timestamp;P1;durP1;ratioP1;P2;durP2;ratioP2
10565;SDS011;5331;48.148;16.326;2023-04-03T00:00:34;3.60;;;3.40;;
10565;SDS011;5331;48.148;16.326;2023-04-03T00:03:01;3.93;;;3.50;;
10565;SDS011;5331;48.148;16.326;2023-04-03T00:05:28;4.00;;;3.70;;
10565;SDS011;5331;48.148;16.326;2023-04-03T00:07:55;3.47;;;3.27;;
10565;SDS011;5331;48.148;16.326;2023-04-03T00:10:24;3.57;;;3.27;;
10565;SDS011;5331;48.148;16.326;2023-04-03T00:12:51;3.83;;;3.53;;
10565;SDS011;5331;48.148;16.326;2023-04-03T00:15:18;4.00;;;3.50;;
10565;SDS011;5331;48.148;16.326;2023-04-03T00:17:45;3.77;;;3.47;;
10565;SDS011;5331;48.148;16.326;2023-04-03T00:20:12;3.50;;;3.10;;
10565;SDS011;5331;48.148;16.326;2023-04-03T00:22:39;3.77;;;3.33;;
10565;SDS011;5331;48.148;16.326;2023-04-03T00:25:07;3.50;;;3.20;;
10565;SDS011;5331;48.148;16.326;2023-04-03T00:27:37;3.43;;;3.13;;
10565;SDS011;5331;48.148;16.326;2023-04-03T00:30:05;3.83;;;3.50;;
10565;SDS011;5331;48.148;16.326;2023-04-03T00:32:34;3.63;;;3.33;;
10565;SDS011;5331;48.148;16.326;2023-04-03T00:35:01;3.23;;;3.03;;
10565;SDS011;5331;48.148;16.326;2023-04-03T00:37:28;3.90;;;3.60;;
10565;SDS011;5331;48.148;16.326;2023-04-03T00:39:55;3.40;;;3.13;;
10565;SDS011;5331;48.148;16.326;2023-04-03T00:42:23;3.50;;;3.30;;
10565;SDS011;5331;48.148;16.326;2023-04-03T00:47:51;3.53;;;3.23;;
10565;SDS011;5331;48.148;16.326;2023-04-03T00:50:18;3.90;;;3.60;;
10565;SDS011;5331;48.148;16.326;2023-04-03T00:52:45;3.90;;;3.60;;
10565;SDS011;5331;48.148;16.326;2023-04-03T00:55:14;4.00;;;3.70;;
10565;SDS011;5331;48.148;16.326;2023-04-03T00:57:42;4.93;;;3.77;;
10565;SDS011;5331;48.148;16.326;2023-04-03T01:00:10;3.93;;;3.63;;
10565;SDS011;5331;48.148;16.326;2023-04-03T01:02:42;4.00;;;3.70;;
10565;SDS011;5331;48.148;16.326;2023-04-03T01:05:09;3.83;;;3.53;;
10565;SDS011;5331;48.148;16.326;2023-04-03T01:07:37;3.70;;;3.40;;
10565;SDS011;5331;48.148;16.326;2023-04-03T01:10:06;3.80;;;3.50;;
10565;SDS011;5331;48.148;16.326;2023-04-03T01:12:36;4.00;;;3.60;;
10565;SDS011;5331;48.148;16.326;2023-04-03T01:15:06;3.90;;;3.60;;
10565;SDS011;5331;48.148;16.326;2023-04-03T01:17:35;3.80;;;3.50;;
10565;SDS011;5331;48.148;16.326;2023-04-03T01:23:30;4.50;;;3.70;;
10565;SDS011;5331;48.148;16.326;2023-04-03T01:26:07;4.03;;;3.40;;
10565;SDS011;5331;48.148;16.326;2023-04-03T01:28:35;3.60;;;3.30;;
10565;SDS011;5331;48.148;16.326;2023-04-03T01:31:05;3.90;;;3.60;;
10565;SDS011;5331;48.148;16.326;2023-04-03T01:33:39;3.80;;;3.50;;
10565;SDS011;5331;48.148;16.326;2023-04-03T01:36:06;3.77;;;3.40;;
10565;SDS011;5331;48.148;16.326;2023-04-03T01:38:34;4.27;;;3.87;;
10565;SDS011;5331;48.148;16.326;2023-04-03T01:41:01;3.73;;;3.37;;
10565;SDS011;5331;48.148;16.326;2023-04-03T01:43:28;3.97;;;3.57;;
10565;SDS011;5331;48.148;16.326;2023-04-03T01:45:55;3.90;;;3.47;;
10565;SDS011;5331;48.148;16.326;2023-04-03T01:48:22;4.00;;;3.60;;
10565;SDS011;5331;48.148;16.326;2023-04-03T01:50:50;3.80;;;3.50;;
10565;SDS011;5331;48.148;16.326;2023-04-03T01:53:17;5.90;;;3.93;;
10565;SDS011;5331;48.148;16.326;2023-04-03T01:55:44;3.73;;;3.43;;
10565;SDS011;5331;48.148;16.326;2023-04-03T01:58:11;3.90;;;3.60;;
10565;SDS011;5331;48.148;16.326;2023-04-03T02:00:38;3.80;;;3.50;;
10565;SDS011;5331;48.148;16.326;2023-04-03T02:03:06;3.90;;;3.47;;
10565;SDS011;5331;48.148;16.326;2023-04-03T02:05:33;4.33;;;3.77;;
10565;SDS011;5331;48.148;16.326;2023-04-03T02:08:01;4.40;;;3.60;;
10565;SDS011;5331;48.148;16.326;2023-04-03T02:10:29;3.83;;;3.53;;
10565;SDS011;5331;48.148;16.326;2023-04-03T02:12:56;4.07;;;3.70;;
10565;SDS011;5331;48.148;16.326;2023-04-03T02:15:23;3.67;;;3.37;;
10565;SDS011;5331;48.148;16.326;2023-04-03T02:17:50;3.77;;;3.47;;
10565;SDS011;5331;48.148;16.326;2023-04-03T02:20:17;3.40;;;3.10;;
10565;SDS011;5331;48.148;16.326;2023-04-03T02:22:45;3.80;;;3.50;;
10565;SDS011;5331;48.148;16.326;2023-04-03T02:25:14;4.07;;;3.67;;
10565;SDS011;5331;48.148;16.326;2023-04-03T02:27:42;4.03;;;3.73;;
10565;SDS011;5331;48.148;16.326;2023-04-03T02:30:10;4.20;;;3.73;;
10565;SDS011;5331;48.148;16.326;2023-04-03T02:32:37;4.03;;;3.63;;
10565;SDS011;5331;48.148;16.326;2023-04-03T02:35:06;4.20;;;3.80;;
10565;SDS011;5331;48.148;16.326;2023-04-03T02:37:33;4.00;;;3.70;;
10565;SDS011;5331;48.148;16.326;2023-04-03T02:40:00;4.40;;;4.03;;
10565;SDS011;5331;48.148;16.326;2023-04-03T02:42:29;4.17;;;3.87;;
10565;SDS011;5331;48.148;16.326;2023-04-03T02:44:56;4.50;;;3.97;;
10565;SDS011;5331;48.148;16.326;2023-04-03T02:47:25;4.30;;;3.90;;
10565;SDS011;5331;48.148;16.326;2023-04-03T02:49:52;4.77;;;4.30;;
10565;SDS011;5331;48.148;16.326;2023-04-03T02:52:19;4.20;;;3.80;;
10565;SDS011;5331;48.148;16.326;2023-04-03T02:54:46;5.70;;;4.20;;
10565;SDS011;5331;48.148;16.326;2023-04-03T02:57:13;4.60;;;4.20;;
10565;SDS011;5331;48.148;16.326;2023-04-03T02:59:42;4.20;;;3.90;;
10565;SDS011;5331;48.148;16.326;2023-04-03T03:02:09;3.77;;;3.50;;
10565;SDS011;5331;48.148;16.326;2023-04-03T03:04:37;4.43;;;3.93;;
10565;SDS011;5331;48.148;16.326;2023-04-03T03:07:04;4.10;;;3.80;;
10565;SDS011;5331;48.148;16.326;2023-04-03T03:09:31;4.40;;;4.10;;
10565;SDS011;5331;48.148;16.326;2023-04-03T03:11:58;4.33;;;4.00;;
10565;SDS011;5331;48.148;16.326;2023-04-03T03:14:25;4.53;;;4.00;;
10565;SDS011;5331;48.148;16.326;2023-04-03T03:16:53;3.87;;;3.57;;
10565;SDS011;5331;48.148;16.326;2023-04-03T03:19:20;4.20;;;3.90;;
10565;SDS011;5331;48.148;16.326;2023-04-03T03:21:47;4.40;;;3.33;;
10565;SDS011;5331;48.148;16.326;2023-04-03T03:24:15;3.70;;;3.30;;
10565;SDS011;5331;48.148;16.326;2023-04-03T03:26:42;3.40;;;3.20;;
10565;SDS011;5331;48.148;16.326;2023-04-03T03:29:09;3.67;;;3.37;;
10565;SDS011;5331;48.148;16.326;2023-04-03T03:31:36;3.57;;;3.33;;
10565;SDS011;5331;48.148;16.326;2023-04-03T03:34:05;3.70;;;3.40;;
10565;SDS011;5331;48.148;16.326;2023-04-03T03:36:32;3.90;;;3.50;;
10565;SDS011;5331;48.148;16.326;2023-04-03T03:38:59;4.40;;;4.00;;
10565;SDS011;5331;48.148;16.326;2023-04-03T03:41:26;4.10;;;3.60;;
10565;SDS011;5331;48.148;16.326;2023-04-03T03:43:53;3.93;;;3.63;;
10565;SDS011;5331;48.148;16.326;2023-04-03T03:46:20;3.90;;;3.60;;
10565;SDS011;5331;48.148;16.326;2023-04-03T03:48:47;4.30;;;3.70;;
10565;SDS011;5331;48.148;16.326;2023-04-03T03:51:16;4.10;;;3.80;;
10565;SDS011;5331;48.148;16.326;2023-04-03T03:53:43;3.90;;;3.60;;
10565;SDS011;5331;48.148;16.326;2023-04-03T03:56:10;3.90;;;3.60;;
10565;SDS011;5331;48.148;16.326;2023-04-03T03:58:37;3.90;;;3.60;;
10565;SDS011;5331;48.148;16.326;2023-04-03T04:01:05;4.10;;;3.70;;
10565;SDS011;5331;48.148;16.326;2023-04-03T04:03:33;4.23;;;3.83;;
10565;SDS011;5331;48.148;16.326;2023-04-03T04:06:00;3.93;;;3.63;;
10565;SDS011;5331;48.148;16.326;2023-04-03T04:08:28;3.67;;;3.37;;
10565;SDS011;5331;48.148;16.326;2023-04-03T04:10:56;5.03;;;3.83;;
10565;SDS011;5331;48.148;16.326;2023-04-03T04:13:23;4.07;;;3.70;;
10565;SDS011;5331;48.148;16.326;2023-04-03T04:15:50;3.90;;;3.60;;
10565;SDS011;5331;48.148;16.326;2023-04-03T04:18:17;5.07;;;4.20;;
10565;SDS011;5331;48.148;16.326;2023-04-03T04:20:45;4.03;;;3.73;;
10565;SDS011;5331;48.148;16.326;2023-04-03T04:23:12;3.77;;;3.30;;
10565;SDS011;5331;48.148;16.326;2023-04-03T04:25:40;5.00;;;3.97;;
10565;SDS011;5331;48.148;16.326;2023-04-03T04:28:10;4.10;;;3.70;;
10565;SDS011;5331;48.148;16.326;2023-04-03T04:30:37;4.20;;;3.87;;
10565;SDS011;5331;48.148;16.326;2023-04-03T04:33:04;4.03;;;3.60;;
10565;SDS011;5331;48.148;16.326;2023-04-03T04:35:31;3.67;;;3.37;;
10565;SDS011;5331;48.148;16.326;2023-04-03T04:37:59;3.70;;;3.40;;
10565;SDS011;5331;48.148;16.326;2023-04-03T04:40:26;4.00;;;3.60;;
10565;SDS011;5331;48.148;16.326;2023-04-03T04:42:55;4.00;;;3.60;;
10565;SDS011;5331;48.148;16.326;2023-04-03T04:45:22;4.00;;;3.60;;
10565;SDS011;5331;48.148;16.326;2023-04-03T04:47:49;7.60;;;6.40;;
10565;SDS011;5331;48.148;16.326;2023-04-03T04:50:17;5.17;;;4.30;;
10565;SDS011;5331;48.148;16.326;2023-04-03T04:52:44;4.20;;;3.90;;
10565;SDS011;5331;48.148;16.326;2023-04-03T04:55:11;3.87;;;3.57;;
10565;SDS011;5331;48.148;16.326;2023-04-03T04:57:38;4.20;;;3.67;;
10565;SDS011;5331;48.148;16.326;2023-04-03T05:00:08;3.57;;;3.27;;
10565;SDS011;5331;48.148;16.326;2023-04-03T05:02:35;4.67;;;4.10;;
10565;SDS011;5331;48.148;16.326;2023-04-03T05:05:03;3.73;;;3.40;;
10565;SDS011;5331;48.148;16.326;2023-04-03T05:07:30;4.70;;;3.43;;
10565;SDS011;5331;48.148;16.326;2023-04-03T05:09:57;3.90;;;3.60;;
10565;SDS011;5331;48.148;16.326;2023-04-03T05:12:24;3.50;;;3.20;;
10565;SDS011;5331;48.148;16.326;2023-04-03T05:14:51;4.20;;;3.80;;
10565;SDS011;5331;48.148;16.326;2023-04-03T05:17:20;4.27;;;3.87;;
10565;SDS011;5331;48.148;16.326;2023-04-03T05:19:47;4.77;;;3.90;;
10565;SDS011;5331;48.148;16.326;2023-04-03T05:22:14;4.13;;;3.73;;
10565;SDS011;5331;48.148;16.326;2023-04-03T05:24:41;4.87;;;3.73;;
10565;SDS011;5331;48.148;16.326;2023-04-03T05:27:08;3.80;;;3.30;;
10565;SDS011;5331;48.148;16.326;2023-04-03T05:29:36;3.90;;;3.50;;
10565;SDS011;5331;48.148;16.326;2023-04-03T05:32:03;4.07;;;3.60;;
10565;SDS011;5331;48.148;16.326;2023-04-03T05:34:31;3.43;;;3.13;;
10565;SDS011;5331;48.148;16.326;2023-04-03T05:36:58;3.70;;;3.40;;
10565;SDS011;5331;48.148;16.326;2023-04-03T05:39:25;3.93;;;3.63;;
10565;SDS011;5331;48.148;16.326;2023-04-03T05:41:53;4.23;;;3.83;;
10565;SDS011;5331;48.148;16.326;2023-04-03T05:44:20;3.90;;;3.57;;
10565;SDS011;5331;48.148;16.326;2023-04-03T05:46:47;3.50;;;3.20;;
10565;SDS011;5331;48.148;16.326;2023-04-03T05:49:14;3.87;;;3.47;;
10565;SDS011;5331;48.148;16.326;2023-04-03T05:51:42;3.53;;;3.23;;
10565;SDS011;5331;48.148;16.326;2023-04-03T05:54:12;4.03;;;3.40;;
10565;SDS011;5331;48.148;16.326;2023-04-03T05:56:43;4.43;;;3.60;;
10565;SDS011;5331;48.148;16.326;2023-04-03T05:59:10;3.90;;;3.60;;
10565;SDS011;5331;48.148;16.326;2023-04-03T06:01:37;3.63;;;3.27;;
10565;SDS011;5331;48.148;16.326;2023-04-03T06:04:04;4.00;;;3.60;;
10565;SDS011;5331;48.148;16.326;2023-04-03T06:06:45;4.60;;;3.57;;
10565;SDS011;5331;48.148;16.326;2023-04-03T06:09:13;3.97;;;3.57;;
10565;SDS011;5331;48.148;16.326;2023-04-03T06:11:41;3.93;;;3.63;;
10565;SDS011;5331;48.148;16.326;2023-04-03T06:14:08;4.13;;;3.80;;
10565;SDS011;5331;48.148;16.326;2023-04-03T06:16:36;4.00;;;3.70;;
10565;SDS011;5331;48.148;16.326;2023-04-03T06:19:04;4.37;;;3.80;;
10565;SDS011;5331;48.148;16.326;2023-04-03T06:21:31;5.73;;;3.77;;
10565;SDS011;5331;48.148;16.326;2023-04-03T06:24:00;4.33;;;3.43;;
10565;SDS011;5331;48.148;16.326;2023-04-03T06:26:27;4.17;;;3.50;;
10565;SDS011;5331;48.148;16.326;2023-04-03T06:28:54;3.70;;;3.40;;
10565;SDS011;5331;48.148;16.326;2023-04-03T06:31:22;3.93;;;3.50;;
10565;SDS011;5331;48.148;16.326;2023-04-03T06:33:49;4.03;;;3.63;;
10565;SDS011;5331;48.148;16.326;2023-04-03T06:36:17;3.80;;;3.50;;
10565;SDS011;5331;48.148;16.326;2023-04-03T06:38:46;3.97;;;3.57;;
10565;SDS011;5331;48.148;16.326;2023-04-03T06:41:15;3.77;;;3.43;;
10565;SDS011;5331;48.148;16.326;2023-04-03T06:43:42;3.73;;;3.43;;
10565;SDS011;5331;48.148;16.326;2023-04-03T06:46:12;5.20;;;3.60;;
10565;SDS011;5331;48.148;16.326;2023-04-03T06:48:41;4.63;;;3.60;;
10565;SDS011;5331;48.148;16.326;2023-04-03T06:51:12;4.10;;;3.70;;
10565;SDS011;5331;48.148;16.326;2023-04-03T06:53:44;4.10;;;3.60;;
10565;SDS011;5331;48.148;16.326;2023-04-03T06:56:12;3.80;;;3.50;;
10565;SDS011;5331;48.148;16.326;2023-04-03T06:58:40;4.33;;;3.83;;
10565;SDS011;5331;48.148;16.326;2023-04-03T07:01:08;4.27;;;3.83;;
10565;SDS011;5331;48.148;16.326;2023-04-03T07:03:35;4.00;;;3.60;;
10565;SDS011;5331;48.148;16.326;2023-04-03T07:06:03;4.33;;;3.30;;
10565;SDS011;5331;48.148;16.326;2023-04-03T07:08:30;4.77;;;3.80;;
10565;SDS011;5331;48.148;16.326;2023-04-03T07:10:58;3.97;;;3.47;;
10565;SDS011;5331;48.148;16.326;2023-04-03T07:13:25;4.20;;;3.33;;
10565;SDS011;5331;48.148;16.326;2023-04-03T07:15:54;4.43;;;3.90;;
10565;SDS011;5331;48.148;16.326;2023-04-03T07:18:21;4.47;;;4.07;;
10565;SDS011;5331;48.148;16.326;2023-04-03T07:20:49;4.67;;;3.33;;
10565;SDS011;5331;48.148;16.326;2023-04-03T07:23:16;4.70;;;3.67;;
10565;SDS011;5331;48.148;16.326;2023-04-03T07:25:43;5.00;;;3.60;;
10565;SDS011;5331;48.148;16.326;2023-04-03T07:28:11;4.60;;;3.57;;
10565;SDS011;5331;48.148;16.326;2023-04-03T07:30:42;3.70;;;3.40;;
10565;SDS011;5331;48.148;16.326;2023-04-03T07:33:11;3.63;;;3.33;;
10565;SDS011;5331;48.148;16.326;2023-04-03T07:35:40;3.40;;;3.10;;
10565;SDS011;5331;48.148;16.326;2023-04-03T07:38:07;3.23;;;3.00;;
10565;SDS011;5331;48.148;16.326;2023-04-03T07:40:34;4.20;;;3.20;;
10565;SDS011;5331;48.148;16.326;2023-04-03T07:43:02;4.43;;;2.90;;
10565;SDS011;5331;48.148;16.326;2023-04-03T07:45:30;3.57;;;3.27;;
10565;SDS011;5331;48.148;16.326;2023-04-03T07:47:58;3.27;;;2.90;;
10565;SDS011;5331;48.148;16.326;2023-04-03T07:50:28;3.40;;;3.10;;
10565;SDS011;5331;48.148;16.326;2023-04-03T07:52:56;3.00;;;2.80;;
10565;SDS011;5331;48.148;16.326;2023-04-03T07:55:23;5.40;;;3.20;;
10565;SDS011;5331;48.148;16.326;2023-04-03T07:57:50;3.53;;;2.97;;
10565;SDS011;5331;48.148;16.326;2023-04-03T08:00:17;3.50;;;3.20;;
10565;SDS011;5331;48.148;16.326;2023-04-03T08:02:45;3.57;;;3.10;;
10565;SDS011;5331;48.148;16.326;2023-04-03T08:05:15;4.03;;;3.03;;
10565;SDS011;5331;48.148;16.326;2023-04-03T08:07:44;4.43;;;2.93;;
10565;SDS011;5331;48.148;16.326;2023-04-03T08:10:11;3.27;;;3.03;;
10565;SDS011;5331;48.148;16.326;2023-04-03T08:12:39;3.40;;;3.10;;
10565;SDS011;5331;48.148;16.326;2023-04-03T08:15:06;3.20;;;2.80;;
10565;SDS011;5331;48.148;16.326;2023-04-03T08:17:34;3.42;;;2.95;;
10565;SDS011;5331;48.148;16.326;2023-04-03T08:20:02;4.45;;;3.10;;
10565;SDS011;5331;48.148;16.326;2023-04-03T08:22:29;3.40;;;3.10;;
10565;SDS011;5331;48.148;16.326;2023-04-03T08:24:58;3.58;;;2.88;;
10565;SDS011;5331;48.148;16.326;2023-04-03T08:27:26;4.05;;;3.03;;
10565;SDS011;5331;48.148;16.326;2023-04-03T08:29:53;5.05;;;2.90;;
10565;SDS011;5331;48.148;16.326;2023-04-03T08:32:20;3.42;;;3.13;;
10565;SDS011;5331;48.148;16.326;2023-04-03T08:34:48;3.45;;;3.15;;
10565;SDS011;5331;48.148;16.326;2023-04-03T08:37:15;3.53;;;3.22;;
10565;SDS011;5331;48.148;16.326;2023-04-03T08:39:42;3.95;;;3.15;;
10565;SDS011;5331;48.148;16.326;2023-04-03T08:42:14;4.43;;;2.97;;
10565;SDS011;5331;48.148;16.326;2023-04-03T08:44:46;3.23;;;2.93;;
10565;SDS011;5331;48.148;16.326;2023-04-03T08:47:18;3.23;;;2.93;;
10565;SDS011;5331;48.148;16.326;2023-04-03T08:49:51;4.20;;;3.10;;
10565;SDS011;5331;48.148;16.326;2023-04-03T08:52:22;3.17;;;2.90;;
10565;SDS011;5331;48.148;16.326;2023-04-03T08:54:56;4.10;;;3.00;;
10565;SDS011;5331;48.148;16.326;2023-04-03T08:57:28;3.70;;;3.00;;
10565;SDS011;5331;48.148;16.326;2023-04-03T08:59:58;3.73;;;2.87;;
10565;SDS011;5331;48.148;16.326;2023-04-03T09:02:29;2.90;;;2.70;;
10565;SDS011;5331;48.148;16.326;2023-04-03T09:05:01;4.20;;;2.77;;
10565;SDS011;5331;48.148;16.326;2023-04-03T09:07:33;3.07;;;2.67;;
10565;SDS011;5331;48.148;16.326;2023-04-03T09:10:05;4.17;;;2.80;;
10565;SDS011;5331;48.148;16.326;2023-04-03T09:12:36;3.20;;;2.90;;
10565;SDS011;5331;48.148;16.326;2023-04-03T09:15:09;4.17;;;3.10;;
10565;SDS011;5331;48.148;16.326;2023-04-03T09:17:46;3.33;;;3.00;;
10565;SDS011;5331;48.148;16.326;2023-04-03T09:20:22;3.77;;;2.97;;
10565;SDS011;5331;48.148;16.326;2023-04-03T09:22:54;3.50;;;2.50;;
10565;SDS011;5331;48.148;16.326;2023-04-03T09:25:21;2.93;;;2.67;;
10565;SDS011;5331;48.148;16.326;2023-04-03T09:27:51;3.57;;;2.63;;
10565;SDS011;5331;48.148;16.326;2023-04-03T09:30:19;3.63;;;3.13;;
10565;SDS011;5331;48.148;16.326;2023-04-03T09:32:49;2.80;;;2.60;;
10565;SDS011;5331;48.148;16.326;2023-04-03T09:35:22;3.23;;;2.83;;
10565;SDS011;5331;48.148;16.326;2023-04-03T09:37:51;3.43;;;2.57;;
10565;SDS011;5331;48.148;16.326;2023-04-03T09:40:29;4.70;;;2.93;;
10565;SDS011;5331;48.148;16.326;2023-04-03T09:43:01;3.30;;;3.00;;
10565;SDS011;5331;48.148;16.326;2023-04-03T09:45:45;3.50;;;3.00;;
10565;SDS011;5331;48.148;16.326;2023-04-03T09:48:15;4.20;;;2.80;;
10565;SDS011;5331;48.148;16.326;2023-04-03T09:50:57;2.60;;;2.40;;
10565;SDS011;5331;48.148;16.326;2023-04-03T09:53:30;2.87;;;2.57;;
10565;SDS011;5331;48.148;16.326;2023-04-03T09:56:00;3.77;;;2.70;;
10565;SDS011;5331;48.148;16.326;2023-04-03T09:58:31;3.20;;;2.90;;
10565;SDS011;5331;48.148;16.326;2023-04-03T10:01:04;2.90;;;2.70;;
10565;SDS011;5331;48.148;16.326;2023-04-03T10:03:32;2.77;;;2.57;;
10565;SDS011;5331;48.148;16.326;2023-04-03T10:06:01;4.43;;;3.20;;
10565;SDS011;5331;48.148;16.326;2023-04-03T10:08:30;4.97;;;3.27;;
10565;SDS011;5331;48.148;16.326;2023-04-03T10:11:08;3.33;;;3.07;;
10565;SDS011;5331;48.148;16.326;2023-04-03T10:13:56;3.43;;;3.13;;
10565;SDS011;5331;48.148;16.326;2023-04-03T10:16:26;3.70;;;3.47;;
10565;SDS011;5331;48.148;16.326;2023-04-03T10:21:57;4.33;;;3.10;;
10565;SDS011;5331;48.148;16.326;2023-04-03T10:24:30;5.13;;;3.23;;
10565;SDS011;5331;48.148;16.326;2023-04-03T10:27:06;3.40;;;3.10;;
10565;SDS011;5331;48.148;16.326;2023-04-03T10:29:42;3.47;;;2.97;;
10565;SDS011;5331;48.148;16.326;2023-04-03T10:32:23;3.40;;;3.07;;
10565;SDS011;5331;48.148;16.326;2023-04-03T10:35:02;4.67;;;2.73;;
10565;SDS011;5331;48.148;16.326;2023-04-03T10:37:40;3.80;;;3.07;;
10565;SDS011;5331;48.148;16.326;2023-04-03T10:40:20;3.27;;;2.97;;
10565;SDS011;5331;48.148;16.326;2023-04-03T10:42:57;3.93;;;3.40;;
10565;SDS011;5331;48.148;16.326;2023-04-03T10:45:32;4.37;;;3.37;;
10565;SDS011;5331;48.148;16.326;2023-04-03T10:48:15;3.80;;;3.50;;
10565;SDS011;5331;48.148;16.326;2023-04-03T10:50:51;3.73;;;3.30;;
10565;SDS011;5331;48.148;16.326;2023-04-03T10:53:27;3.77;;;3.30;;
10565;SDS011;5331;48.148;16.326;2023-04-03T10:56:03;3.50;;;3.10;;
10565;SDS011;5331;48.148;16.326;2023-04-03T10:58:38;4.47;;;3.03;;
10565;SDS011;5331;48.148;16.326;2023-04-03T11:01:09;3.37;;;3.07;;
10565;SDS011;5331;48.148;16.326;2023-04-03T11:03:43;3.03;;;2.73;;
10565;SDS011;5331;48.148;16.326;2023-04-03T11:06:13;3.10;;;2.80;;
10565;SDS011;5331;48.148;16.326;2023-04-03T11:08:44;2.97;;;2.77;;
10565;SDS011;5331;48.148;16.326;2023-04-03T11:11:16;3.33;;;3.03;;
10565;SDS011;5331;48.148;16.326;2023-04-03T11:13:48;4.37;;;3.10;;
10565;SDS011;5331;48.148;16.326;2023-04-03T11:16:22;3.00;;;2.80;;
10565;SDS011;5331;48.148;16.326;2023-04-03T11:18:54;3.03;;;2.70;;
10565;SDS011;5331;48.148;16.326;2023-04-03T11:21:26;4.57;;;2.73;;
10565;SDS011;5331;48.148;16.326;2023-04-03T11:23:59;4.40;;;2.70;;
10565;SDS011;5331;48.148;16.326;2023-04-03T11:26:31;3.20;;;2.67;;
10565;SDS011;5331;48.148;16.326;2023-04-03T11:29:04;3.77;;;2.80;;
10565;SDS011;5331;48.148;16.326;2023-04-03T11:31:40;3.20;;;2.90;;
10565;SDS011;5331;48.148;16.326;2023-04-03T11:34:23;3.20;;;2.60;;
10565;SDS011;5331;48.148;16.326;2023-04-03T11:36:59;3.20;;;2.90;;
10565;SDS011;5331;48.148;16.326;2023-04-03T11:39:28;3.30;;;2.67;;
10565;SDS011;5331;48.148;16.326;2023-04-03T11:42:12;3.17;;;2.80;;
10565;SDS011;5331;48.148;16.326;2023-04-03T11:44:41;3.00;;;2.70;;
10565;SDS011;5331;48.148;16.326;2023-04-03T11:47:10;2.87;;;2.60;;
10565;SDS011;5331;48.148;16.326;2023-04-03T11:49:58;5.83;;;2.90;;
10565;SDS011;5331;48.148;16.326;2023-04-03T11:55:45;4.03;;;2.80;;
10565;SDS011;5331;48.148;16.326;2023-04-03T11:58:20;3.07;;;2.70;;
10565;SDS011;5331;48.148;16.326;2023-04-03T12:00:49;3.00;;;2.80;;
10565;SDS011;5331;48.148;16.326;2023-04-03T12:12:29;2.50;;;2.30;;
10565;SDS011;5331;48.148;16.326;2023-04-03T12:21:07;3.00;;;2.80;;
10565;SDS011;5331;48.148;16.326;2023-04-03T12:23:35;4.07;;;2.90;;
10565;SDS011;5331;48.148;16.326;2023-04-03T12:26:18;4.67;;;2.83;;
10565;SDS011;5331;48.148;16.326;2023-04-03T12:28:48;3.10;;;2.90;;
10565;SDS011;5331;48.148;16.326;2023-04-03T12:31:18;3.33;;;2.70;;
10565;SDS011;5331;48.148;16.326;2023-04-03T12:34:04;3.73;;;2.80;;
10565;SDS011;5331;48.148;16.326;2023-04-03T12:36:45;3.30;;;3.00;;
10565;SDS011;5331;48.148;16.326;2023-04-03T12:42:35;2.90;;;2.70;;
10565;SDS011;5331;48.148;16.326;2023-04-03T12:45:15;3.30;;;3.00;;
10565;SDS011;5331;48.148;16.326;2023-04-03T12:47:45;3.20;;;2.90;;
10565;SDS011;5331;48.148;16.326;2023-04-03T12:50:20;4.50;;;2.90;;
10565;SDS011;5331;48.148;16.326;2023-04-03T12:52:53;2.97;;;2.70;;
10565;SDS011;5331;48.148;16.326;2023-04-03T12:55:23;3.50;;;2.97;;
10565;SDS011;5331;48.148;16.326;2023-04-03T12:57:51;4.30;;;2.90;;
10565;SDS011;5331;48.148;16.326;2023-04-03T13:00:20;3.23;;;2.93;;
10565;SDS011;5331;48.148;16.326;2023-04-03T13:02:55;2.90;;;2.70;;
10565;SDS011;5331;48.148;16.326;2023-04-03T13:05:22;3.40;;;3.10;;
10565;SDS011;5331;48.148;16.326;2023-04-03T13:07:52;4.63;;;3.10;;
10565;SDS011;5331;48.148;16.326;2023-04-03T13:10:27;3.60;;;3.30;;
10565;SDS011;5331;48.148;16.326;2023-04-03T13:12:54;3.20;;;2.90;;
10565;SDS011;5331;48.148;16.326;2023-04-03T13:15:24;3.13;;;2.93;;
10565;SDS011;5331;48.148;16.326;2023-04-03T13:17:52;3.07;;;2.70;;
10565;SDS011;5331;48.148;16.326;2023-04-03T13:20:22;3.27;;;2.80;;
10565;SDS011;5331;48.148;16.326;2023-04-03T13:22:58;3.47;;;2.93;;
10565;SDS011;5331;48.148;16.326;2023-04-03T13:25:30;3.77;;;2.83;;
10565;SDS011;5331;48.148;16.326;2023-04-03T13:27:59;4.67;;;3.10;;
10565;SDS011;5331;48.148;16.326;2023-04-03T13:30:29;3.03;;;2.70;;
10565;SDS011;5331;48.148;16.326;2023-04-03T13:32:58;3.57;;;2.80;;
10565;SDS011;5331;48.148;16.326;2023-04-03T13:35:30;3.57;;;3.03;;
10565;SDS011;5331;48.148;16.326;2023-04-03T13:38:05;3.10;;;2.77;;
10565;SDS011;5331;48.148;16.326;2023-04-03T13:40:33;2.53;;;2.33;;
10565;SDS011;5331;48.148;16.326;2023-04-03T13:43:16;2.67;;;2.47;;
10565;SDS011;5331;48.148;16.326;2023-04-03T13:45:53;3.50;;;2.80;;
10565;SDS011;5331;48.148;16.326;2023-04-03T13:48:34;2.83;;;2.60;;
10565;SDS011;5331;48.148;16.326;2023-04-03T13:51:04;2.90;;;2.60;;
10565;SDS011;5331;48.148;16.326;2023-04-03T13:53:41;3.23;;;2.90;;
10565;SDS011;5331;48.148;16.326;2023-04-03T13:56:16;2.93;;;2.60;;
10565;SDS011;5331;48.148;16.326;2023-04-03T13:58:58;2.87;;;2.50;;
10565;SDS011;5331;48.148;16.326;2023-04-03T14:01:33;2.77;;;2.40;;
10565;SDS011;5331;48.148;16.326;2023-04-03T14:04:10;3.33;;;2.70;;
10565;SDS011;5331;48.148;16.326;2023-04-03T14:06:42;2.93;;;2.63;;
10565;SDS011;5331;48.148;16.326;2023-04-03T14:09:10;2.63;;;2.43;;
10565;SDS011;5331;48.148;16.326;2023-04-03T14:11:38;3.30;;;3.00;;
10565;SDS011;5331;48.148;16.326;2023-04-03T14:14:09;3.07;;;2.77;;
10565;SDS011;5331;48.148;16.326;2023-04-03T14:16:40;4.27;;;2.60;;
10565;SDS011;5331;48.148;16.326;2023-04-03T14:19:13;5.60;;;2.67;;
10565;SDS011;5331;48.148;16.326;2023-04-03T14:21:45;3.17;;;2.37;;
10565;SDS011;5331;48.148;16.326;2023-04-03T14:24:14;3.70;;;2.47;;
10565;SDS011;5331;48.148;16.326;2023-04-03T14:26:41;2.70;;;2.50;;
10565;SDS011;5331;48.148;16.326;2023-04-03T14:29:10;2.97;;;2.73;;
10565;SDS011;5331;48.148;16.326;2023-04-03T14:31:38;3.50;;;2.90;;
10565;SDS011;5331;48.148;16.326;2023-04-03T14:34:06;5.23;;;2.90;;
10565;SDS011;5331;48.148;16.326;2023-04-03T14:36:33;2.77;;;2.37;;
10565;SDS011;5331;48.148;16.326;2023-04-03T14:39:01;3.20;;;2.30;;
10565;SDS011;5331;48.148;16.326;2023-04-03T14:41:30;3.33;;;2.83;;
10565;SDS011;5331;48.148;16.326;2023-04-03T14:43:57;2.93;;;2.73;;
10565;SDS011;5331;48.148;16.326;2023-04-03T14:46:26;3.10;;;2.80;;
10565;SDS011;5331;48.148;16.326;2023-04-03T14:48:55;3.10;;;2.70;;
10565;SDS011;5331;48.148;16.326;2023-04-03T14:51:22;4.23;;;2.90;;
10565;SDS011;5331;48.148;16.326;2023-04-03T14:53:49;3.60;;;2.50;;
10565;SDS011;5331;48.148;16.326;2023-04-03T14:56:18;2.83;;;2.57;;
10565;SDS011;5331;48.148;16.326;2023-04-03T14:58:57;2.67;;;2.47;;
10565;SDS011;5331;48.148;16.326;2023-04-03T15:01:26;2.80;;;2.60;;
10565;SDS011;5331;48.148;16.326;2023-04-03T15:03:53;4.10;;;2.70;;
10565;SDS011;5331;48.148;16.326;2023-04-03T15:06:21;2.50;;;2.30;;
10565;SDS011;5331;48.148;16.326;2023-04-03T15:08:48;2.87;;;2.50;;
10565;SDS011;5331;48.148;16.326;2023-04-03T15:11:15;2.73;;;2.53;;
10565;SDS011;5331;48.148;16.326;2023-04-03T15:13:42;2.97;;;2.70;;
10565;SDS011;5331;48.148;16.326;2023-04-03T15:16:14;2.80;;;2.60;;
10565;SDS011;5331;48.148;16.326;2023-04-03T15:18:43;3.23;;;2.83;;
10565;SDS011;5331;48.148;16.326;2023-04-03T15:21:11;2.70;;;2.50;;
10565;SDS011;5331;48.148;16.326;2023-04-03T15:23:38;3.20;;;2.90;;
10565;SDS011;5331;48.148;16.326;2023-04-03T15:26:05;3.40;;;2.70;;
10565;SDS011;5331;48.148;16.326;2023-04-03T15:28:34;3.70;;;3.40;;
10565;SDS011;5331;48.148;16.326;2023-04-03T15:31:04;4.27;;;3.47;;
10565;SDS011;5331;48.148;16.326;2023-04-03T15:33:33;9.33;;;5.37;;